Time;durP1;ratioP1;P1;durP2;ratioP2;P2;SDS_P1;SDS_P2;PMS_P1;PMS_P2;Temp;Humidity;BMP_temperature;BMP_pressure;BME280_temperature;BME280_humidity;BME280_pressure;Samples;Min_cycle;Max_cycle;Signal;HPM_P1;HPM_P2
2022/11/19 00:02:24;;;;;;;9.43;8.30;;;1.20;99.90;;;;;;5058143;28;20037;-65
2022/11/19 00:04:50;;;;;;;9.73;8.18;;;1.20;99.90;;;;;;5059425;28;20091;-65
2022/11/19 00:07:16;;;;;;;9.52;7.88;;;1.10;99.90;;;;;;5061143;28;20025;-64
2022/11/19 00:09:42;;;;;;;9.00;7.80;;;1.20;99.90;;;;;;5060437;28;20485;-66
2022/11/19 00:14:54;;;;;;;8.98;7.80;;;1.20;99.90;;;;;;5063155;28;20098;-66
2022/11/19 00:17:19;;;;;;;9.52;7.80;;;1.20;99.90;;;;;;5059376;28;20544;-65
2022/11/19 00:19:45;;;;;;;11.52;7.80;;;1.20;99.90;;;;;;5061929;28;20381;-65
2022/11/19 00:22:11;;;;;;;9.45;7.53;;;1.20;99.90;;;;;;5059930;28;20047;-65
2022/11/19 00:24:38;;;;;;;7.95;7.10;;;1.20;99.90;;;;;;5047941;28;20074;-65
2022/11/19 00:27:04;;;;;;;9.48;7.72;;;1.20;99.90;;;;;;5063153;28;20094;-65
2022/11/19 00:29:29;;;;;;;8.05;6.90;;;1.20;99.90;;;;;;5068829;28;20049;-65
2022/11/19 00:31:55;;;;;;;7.88;6.70;;;1.20;99.90;;;;;;5050261;28;20036;-65
2022/11/19 00:34:21;;;;;;;7.32;6.47;;;1.20;99.90;;;;;;5063635;28;20063;-65
2022/11/19 00:36:47;;;;;;;8.00;6.65;;;1.20;99.90;;;;;;5062967;28;20395;-64
2022/11/19 00:39:12;;;;;;;7.63;6.65;;;1.20;99.90;;;;;;5062272;28;20041;-65
2022/11/19 00:41:38;;;;;;;8.20;6.32;;;1.20;99.90;;;;;;5039160;28;20257;-65
2022/11/19 00:44:04;;;;;;;7.30;6.28;;;1.20;99.90;;;;;;5063085;28;20071;-65
2022/11/19 00:46:30;;;;;;;7.85;6.22;;;1.10;99.90;;;;;;5047853;28;20037;-65
2022/11/19 00:48:58;;;;;;;6.82;5.53;;;1.20;99.90;;;;;;5063847;28;20503;-65
2022/11/19 00:51:27;;;;;;;5.40;4.90;;;1.20;99.90;;;;;;5061201;28;20047;-65
2022/11/19 00:53:54;;;;;;;7.53;5.90;;;1.20;99.90;;;;;;5060437;28;20452;-65
2022/11/19 00:56:21;;;;;;;6.95;6.00;;;1.10;99.90;;;;;;5058605;28;20145;-65
2022/11/19 00:58:47;;;;;;;7.18;5.88;;;1.10;99.90;;;;;;5059594;28;20044;-65
2022/11/19 01:01:15;;;;;;;5.35;4.75;;;1.10;99.90;;;;;;5064170;28;20563;-65
2022/11/19 01:03:44;;;;;;;6.30;4.40;;;1.20;99.90;;;;;;5057491;28;20115;-65
2022/11/19 01:06:10;;;;;;;6.53;4.88;;;1.10;99.90;;;;;;5042644;28;20128;-65
2022/11/19 01:08:36;;;;;;;6.35;4.55;;;1.10;99.90;;;;;;5064238;28;20064;-64
2022/11/19 01:11:10;;;;;;;5.75;4.43;;;1.10;99.90;;;;;;5057494;28;20130;-65
2022/11/19 01:13:36;;;;;;;5.85;4.07;;;1.10;99.90;;;;;;5061534;28;20372;-65
2022/11/19 01:16:07;;;;;;;6.25;3.95;;;1.10;99.90;;;;;;5058819;28;20033;-65
2022/11/19 01:18:33;;;;;;;5.65;3.90;;;1.10;99.90;;;;;;5044534;28;20063;-66
2022/11/19 01:20:59;;;;;;;5.50;3.60;;;1.10;99.90;;;;;;5058013;28;20056;-66
2022/11/19 01:23:25;;;;;;;5.03;3.97;;;1.10;99.90;;;;;;5062441;28;20130;-65
2022/11/19 01:25:50;;;;;;;4.97;4.22;;;1.10;99.90;;;;;;5059301;28;20148;-65
2022/11/19 01:28:16;;;;;;;5.00;3.88;;;1.00;99.90;;;;;;5059938;28;20040;-64
2022/11/19 01:30:43;;;;;;;4.63;3.13;;;1.10;99.90;;;;;;5054769;28;20043;-66
2022/11/19 01:33:09;;;;;;;4.35;3.60;;;1.00;99.90;;;;;;5057796;28;20122;-66
2022/11/19 01:35:35;;;;;;;4.45;3.53;;;1.00;99.90;;;;;;5063941;28;20360;-64
2022/11/19 01:38:02;;;;;;;5.45;3.83;;;1.00;99.90;;;;;;5059131;28;20045;-65
2022/11/19 01:40:28;;;;;;;4.63;3.50;;;1.00;99.90;;;;;;5060173;28;20032;-65
2022/11/19 01:42:54;;;;;;;4.22;3.75;;;0.90;99.90;;;;;;5043746;28;20044;-66
2022/11/19 01:45:36;;;;;;;5.13;4.32;;;0.90;99.90;;;;;;5063161;28;20078;-65
2022/11/19 01:48:28;;;;;;;4.22;3.47;;;0.90;99.90;;;;;;5057676;28;20353;-65
2022/11/19 01:51:03;;;;;;;5.30;3.80;;;0.80;99.90;;;;;;5050034;28;20068;-66
2022/11/19 01:53:31;;;;;;;4.88;3.95;;;0.80;99.90;;;;;;5060173;28;20049;-65
2022/11/19 01:56:02;;;;;;;4.10;3.22;;;0.80;99.90;;;;;;5058439;28;20377;-66
2022/11/19 01:58:32;;;;;;;5.10;3.88;;;0.80;99.90;;;;;;5064669;28;20070;-66
2022/11/19 02:00:58;;;;;;;4.82;3.55;;;0.70;99.90;;;;;;5061917;28;20426;-65
2022/11/19 02:03:26;;;;;;;5.15;3.88;;;0.60;99.90;;;;;;5059715;28;20036;-66
2022/11/19 02:05:53;;;;;;;6.05;4.18;;;0.60;99.90;;;;;;5058817;28;20571;-66
2022/11/19 02:08:42;;;;;;;6.32;4.53;;;0.60;99.90;;;;;;5056992;28;20041;-65
2022/11/19 02:11:48;;;;;;;4.95;3.95;;;0.60;99.90;;;;;;5061110;28;20420;-66
2022/11/19 02:14:23;;;;;;;7.50;4.07;;;0.50;99.90;;;;;;5056262;28;20482;-65
2022/11/19 02:17:09;;;;;;;4.40;3.40;;;0.40;99.90;;;;;;5062656;28;20040;-66
2022/11/19 02:20:06;;;;;;;4.82;3.92;;;0.40;99.90;;;;;;5042223;28;20224;-65
2022/11/19 02:22:49;;;;;;;4.47;4.00;;;0.40;99.90;;;;;;5055253;28;20444;-65
2022/11/19 02:25:36;;;;;;;4.78;4.03;;;0.30;99.90;;;;;;5042655;28;20048;-67
2022/11/19 02:28:22;;;;;;;5.32;3.83;;;0.30;99.90;;;;;;5060786;28;20131;-66
2022/11/19 02:30:54;;;;;;;5.07;4.07;;;0.30;99.90;;;;;;5040167;28;20052;-65
2022/11/19 02:33:20;;;;;;;5.40;3.75;;;0.20;99.90;;;;;;5058467;28;20029;-65
2022/11/19 02:36:12;;;;;;;6.05;3.88;;;0.20;99.90;;;;;;5058736;28;20036;-66
2022/11/19 02:39:02;;;;;;;4.18;3.60;;;0.20;99.90;;;;;;5055487;28;20057;-64
2022/11/19 02:41:53;;;;;;;5.60;4.28;;;0.10;99.90;;;;;;5061078;28;20050;-65
2022/11/19 02:47:17;;;;;;;4.88;2.88;;;0.10;99.90;;;;;;5063627;28;20255;-65
2022/11/19 02:49:44;;;;;;;4.60;3.72;;;0.10;99.90;;;;;;5059652;28;20393;-66
2022/11/19 02:52:13;;;;;;;4.88;4.20;;;0.00;99.90;;;;;;5064394;28;20422;-65
2022/11/19 02:54:39;;;;;;;5.47;3.40;;;0.00;99.90;;;;;;5061244;28;20041;-65
2022/11/19 02:57:04;;;;;;;6.28;4.18;;;0.00;99.90;;;;;;5044998;28;20107;-65
2022/11/19 03:05:21;;;;;;;4.88;3.83;;;-0.10;99.90;;;;;;5060516;28;20052;-66
2022/11/19 03:07:47;;;;;;;5.22;3.60;;;-0.10;99.90;;;;;;5060468;28;20045;-65
2022/11/19 03:10:15;;;;;;;5.70;3.95;;;-0.10;99.90;;;;;;5057453;28;20029;-65
2022/11/19 03:16:40;;;;;;;6.07;4.00;;;-0.10;99.90;;;;;;5059732;28;20045;-65
2022/11/19 03:18:49;;;;;;;5.85;4.47;;;-0.10;99.90;;;;;;5056971;28;20163;-66
2022/11/19 03:21:29;;;;;;;5.13;3.97;;;-0.10;99.90;;;;;;5059077;28;20484;-67
2022/11/19 03:24:03;;;;;;;5.05;3.80;;;-0.10;99.90;;;;;;5046862;28;20190;-66
2022/11/19 03:26:33;;;;;;;4.63;3.58;;;-0.20;99.90;;;;;;5056047;28;20045;-66
2022/11/19 03:29:02;;;;;;;4.47;3.45;;;-0.10;99.90;;;;;;5041171;28;20036;-65
2022/11/19 03:31:30;;;;;;;4.35;3.50;;;-0.20;99.90;;;;;;5040858;28;20045;-66
2022/11/19 03:34:02;;;;;;;4.57;3.67;;;-0.20;99.90;;;;;;5057598;28;20051;-66
2022/11/19 03:36:39;;;;;;;4.53;3.58;;;-0.30;99.90;;;;;;5058964;28;20060;-65
2022/11/19 03:39:10;;;;;;;4.45;3.30;;;-0.20;99.90;;;;;;5043035;28;20112;-66
2022/11/19 03:41:39;;;;;;;4.93;3.42;;;-0.30;99.90;;;;;;5041842;28;20479;-66
2022/11/19 03:44:16;;;;;;;4.97;3.60;;;-0.30;99.90;;;;;;5061667;28;20095;-67
2022/11/19 03:46:45;;;;;;;5.72;4.05;;;-0.30;99.90;;;;;;5039364;28;20225;-66
2022/11/19 03:49:13;;;;;;;6.50;4.10;;;-0.40;99.90;;;;;;5061583;28;20358;-66
2022/11/19 03:51:54;;;;;;;4.55;3.40;;;-0.40;99.90;;;;;;5040654;28;20097;-65
2022/11/19 03:54:20;;;;;;;5.70;3.53;;;-0.50;99.90;;;;;;5045289;28;20044;-65
2022/11/19 03:56:47;;;;;;;4.68;3.42;;;-0.50;99.90;;;;;;5058100;28;20110;-66
2022/11/19 03:59:13;;;;;;;4.55;3.55;;;-0.50;99.90;;;;;;5062419;28;20134;-66
2022/11/19 04:01:39;;;;;;;5.63;3.90;;;-0.50;99.90;;;;;;5059129;28;20084;-66
2022/11/19 04:06:49;;;;;;;4.80;3.42;;;-0.60;99.90;;;;;;5061048;28;20496;-67
2022/11/19 04:09:15;;;;;;;4.03;3.30;;;-0.60;99.90;;;;;;5060689;28;20033;-67
2022/11/19 04:11:44;;;;;;;3.85;3.30;;;-0.60;99.90;;;;;;5056225;28;20055;-66
2022/11/19 04:14:09;;;;;;;4.78;3.67;;;-0.60;99.90;;;;;;5059251;28;20045;-66
2022/11/19 04:16:35;;;;;;;4.95;3.67;;;-0.60;99.90;;;;;;5063576;28;20429;-67
2022/11/19 04:19:01;;;;;;;6.82;4.03;;;-0.60;99.90;;;;;;5059023;28;20131;-66
2022/11/19 04:21:26;;;;;;;4.57;3.65;;;-0.70;99.90;;;;;;5062266;28;20040;-66
2022/11/19 04:23:52;;;;;;;5.32;3.65;;;-0.70;99.90;;;;;;5040992;28;20037;-66
2022/11/19 04:26:18;;;;;;;4.55;3.58;;;-0.70;99.90;;;;;;5045795;28;20040;-65
2022/11/19 04:28:43;;;;;;;5.30;4.18;;;-0.70;99.90;;;;;;5025252;28;20068;-65
2022/11/19 04:31:09;;;;;;;4.07;3.00;;;-0.80;99.90;;;;;;5049067;28;20515;-66
2022/11/19 04:33:35;;;;;;;4.47;3.60;;;-0.80;99.90;;;;;;5040262;28;20166;-65
2022/11/19 04:36:01;;;;;;;4.45;4.05;;;-0.80;99.90;;;;;;5059829;28;20085;-66
2022/11/19 04:38:26;;;;;;;5.40;4.10;;;-0.80;99.90;;;;;;5044522;28;20048;-66
2022/11/19 04:40:52;;;;;;;5.93;3.92;;;-0.80;99.90;;;;;;5062184;28;20042;-66
2022/11/19 04:43:18;;;;;;;6.57;4.47;;;-0.80;99.90;;;;;;5041007;28;20076;-65
2022/11/19 04:45:43;;;;;;;4.88;3.70;;;-0.90;99.90;;;;;;5044511;28;20341;-65
2022/11/19 04:48:09;;;;;;;5.43;3.85;;;-0.90;99.90;;;;;;5061318;28;20112;-65
2022/11/19 04:50:35;;;;;;;5.90;4.00;;;-0.80;99.90;;;;;;5048774;28;20040;-66
2022/11/19 04:53:00;;;;;;;4.60;3.83;;;-0.90;99.90;;;;;;5060596;28;20041;-65
2022/11/19 04:55:26;;;;;;;5.97;4.32;;;-0.90;99.90;;;;;;5064127;28;20392;-66
2022/11/19 04:57:52;;;;;;;4.68;3.72;;;-0.90;99.90;;;;;;5065145;28;20113;-65
2022/11/19 05:00:18;;;;;;;4.68;4.18;;;-0.90;99.90;;;;;;5039936;28;20060;-65
2022/11/19 05:02:44;;;;;;;5.15;3.90;;;-1.00;99.90;;;;;;5061614;28;20032;-66
2022/11/19 05:05:10;;;;;;;4.10;3.22;;;-0.90;99.90;;;;;;5059643;28;20113;-68
2022/11/19 05:07:36;;;;;;;3.88;2.80;;;-1.00;99.90;;;;;;5062481;28;20206;-68
2022/11/19 05:10:01;;;;;;;4.72;3.95;;;-1.00;99.90;;;;;;5061222;28;20068;-68
2022/11/19 05:12:27;;;;;;;5.90;4.15;;;-1.00;99.90;;;;;;5061762;28;20682;-68
2022/11/19 05:14:52;;;;;;;4.65;3.97;;;-1.00;99.90;;;;;;5060231;28;20078;-68
2022/11/19 05:17:18;;;;;;;5.80;3.75;;;-1.00;99.90;;;;;;5060851;28;20048;-68
2022/11/19 05:19:44;;;;;;;6.85;4.22;;;-1.00;99.90;;;;;;5054934;28;20041;-68
2022/11/19 05:22:09;;;;;;;5.05;3.67;;;-1.00;99.90;;;;;;5060590;28;20581;-67
2022/11/19 05:24:35;;;;;;;3.95;3.40;;;-1.00;99.90;;;;;;5041380;28;20063;-68
2022/11/19 05:27:01;;;;;;;5.07;4.03;;;-1.00;99.90;;;;;;5060746;28;20131;-67
2022/11/19 05:29:27;;;;;;;6.40;4.03;;;-1.10;99.90;;;;;;5055744;28;20099;-67
2022/11/19 05:31:53;;;;;;;5.28;3.70;;;-1.00;99.90;;;;;;5057409;28;20037;-67
2022/11/19 05:34:18;;;;;;;6.00;4.40;;;-1.10;99.90;;;;;;5060623;28;20052;-67
2022/11/19 05:36:44;;;;;;;5.93;4.38;;;-1.10;99.90;;;;;;5059954;28;20078;-68
2022/11/19 05:39:10;;;;;;;6.47;4.28;;;-1.10;99.90;;;;;;5039612;28;20040;-67
2022/11/19 05:41:35;;;;;;;4.75;3.55;;;-1.10;99.90;;;;;;5058893;28;20681;-67
2022/11/19 05:44:01;;;;;;;5.53;4.18;;;-1.10;99.90;;;;;;5060804;28;20045;-67
2022/11/19 05:46:27;;;;;;;6.20;4.00;;;-1.20;99.90;;;;;;5060538;28;21466;-67
2022/11/19 05:48:53;;;;;;;5.90;4.47;;;-1.20;99.90;;;;;;5057478;28;20043;-67
2022/11/19 05:51:19;;;;;;;5.85;4.75;;;-1.20;99.90;;;;;;5055751;28;20384;-67
2022/11/19 05:53:44;;;;;;;5.18;4.60;;;-1.20;99.90;;;;;;5040654;28;20108;-67
2022/11/19 05:56:10;;;;;;;6.30;4.50;;;-1.20;99.90;;;;;;5051096;28;20052;-67
2022/11/19 05:58:36;;;;;;;6.72;4.50;;;-1.20;99.90;;;;;;5058826;28;20350;-67
2022/11/19 06:01:02;;;;;;;6.35;5.15;;;-1.20;99.90;;;;;;5055727;28;20989;-67
2022/11/19 06:03:28;;;;;;;5.38;4.55;;;-1.20;99.90;;;;;;5062896;28;20029;-67
2022/11/19 06:05:54;;;;;;;6.32;5.20;;;-1.20;99.90;;;;;;5055643;28;20040;-67
2022/11/19 06:08:20;;;;;;;5.85;4.88;;;-1.20;99.90;;;;;;5055908;28;20461;-67
2022/11/19 06:10:45;;;;;;;6.47;5.60;;;-1.30;99.90;;;;;;5044488;28;20049;-67
2022/11/19 06:13:11;;;;;;;7.90;5.47;;;-1.30;99.90;;;;;;5041185;28;20036;-67
2022/11/19 06:15:37;;;;;;;5.32;4.65;;;-1.30;99.90;;;;;;5061369;28;20448;-67
2022/11/19 06:18:03;;;;;;;7.88;5.93;;;-1.30;99.90;;;;;;5058880;28;20036;-67
2022/11/19 06:20:29;;;;;;;6.82;5.57;;;-1.30;99.90;;;;;;5055563;28;20045;-67
2022/11/19 06:22:55;;;;;;;6.03;5.20;;;-1.30;99.90;;;;;;5059118;28;20545;-67
2022/11/19 06:25:20;;;;;;;7.63;6.40;;;-1.40;99.90;;;;;;5063420;28;20115;-67
2022/11/19 06:27:46;;;;;;;7.20;6.10;;;-1.40;99.90;;;;;;5061232;28;20116;-67
2022/11/19 06:30:12;;;;;;;7.10;6.18;;;-1.40;99.90;;;;;;5036341;28;20465;-67
2022/11/19 06:32:38;;;;;;;7.18;5.63;;;-1.30;99.90;;;;;;5052647;28;20067;-67
2022/11/19 06:35:04;;;;;;;9.23;6.70;;;-1.40;99.90;;;;;;5062898;28;20036;-67
2022/11/19 06:37:30;;;;;;;7.85;6.57;;;-1.40;99.90;;;;;;5056718;28;20109;-67
2022/11/19 06:39:56;;;;;;;7.90;7.03;;;-1.40;99.90;;;;;;5058342;28;20123;-67
2022/11/19 06:42:37;;;;;;;8.13;6.15;;;-1.40;99.90;;;;;;5055194;28;20543;-67
2022/11/19 06:45:08;;;;;;;8.93;6.78;;;-1.40;99.90;;;;;;5057965;28;20043;-67
2022/11/19 06:47:34;;;;;;;9.10;6.60;;;-1.40;99.90;;;;;;5056849;28;20488;-67
2022/11/19 06:50:00;;;;;;;10.68;7.40;;;-1.50;99.90;;;;;;5039780;28;20040;-67
2022/11/19 06:52:26;;;;;;;7.88;6.97;;;-1.50;99.90;;;;;;5057050;28;20071;-67
2022/11/19 06:54:53;;;;;;;9.70;7.60;;;-1.50;99.90;;;;;;5056371;28;20039;-67
2022/11/19 06:57:18;;;;;;;10.70;7.28;;;-1.50;99.90;;;;;;5059536;28;20052;-67
2022/11/19 06:59:44;;;;;;;8.85;7.30;;;-1.50;99.90;;;;;;5058479;28;20033;-67
2022/11/19 07:02:11;;;;;;;11.00;7.70;;;-1.50;99.90;;;;;;5059945;28;20574;-67
2022/11/19 07:04:37;;;;;;;8.93;7.47;;;-1.50;99.90;;;;;;5036447;28;20150;-67
2022/11/19 07:07:03;;;;;;;8.05;6.88;;;-1.50;99.90;;;;;;5037256;28;20234;-67
2022/11/19 07:09:29;;;;;;;8.52;7.57;;;-1.60;99.90;;;;;;5042265;28;20068;-67
2022/11/19 07:11:55;;;;;;;8.20;7.32;;;-1.50;99.90;;;;;;5057343;28;20046;-67
2022/11/19 07:14:21;;;;;;;8.35;7.45;;;-1.50;99.90;;;;;;5058659;28;20444;-67
2022/11/19 07:16:46;;;;;;;7.53;6.72;;;-1.50;99.90;;;;;;5056907;28;20133;-67
2022/11/19 07:19:12;;;;;;;9.13;6.82;;;-1.50;99.90;;;;;;5057627;28;20037;-67
2022/11/19 07:21:38;;;;;;;9.38;6.80;;;-1.50;99.90;;;;;;5053009;28;20037;-67
2022/11/19 07:24:06;;;;;;;9.13;7.57;;;-1.50;99.90;;;;;;5056381;28;20074;-67
2022/11/19 07:26:33;;;;;;;7.40;6.57;;;-1.50;99.90;;;;;;5057022;28;20041;-67
2022/11/19 07:29:00;;;;;;;9.18;7.72;;;-1.50;99.90;;;;;;5052190;28;20036;-67
2022/11/19 07:31:26;;;;;;;10.07;8.45;;;-1.50;99.90;;;;;;5061098;28;20037;-67
2022/11/19 07:33:52;;;;;;;13.63;7.60;;;-1.50;99.90;;;;;;5040308;28;20044;-68
2022/11/19 07:36:18;;;;;;;10.82;8.02;;;-1.50;99.90;;;;;;5057724;28;20364;-67
2022/11/19 07:38:44;;;;;;;9.77;8.75;;;-1.60;99.90;;;;;;5058035;28;20036;-67
2022/11/19 07:43:54;;;;;;;10.20;7.70;;;-1.50;99.90;;;;;;5044606;28;20085;-67
2022/11/19 07:46:19;;;;;;;10.90;8.10;;;-1.50;99.90;;;;;;5057689;28;20138;-67
2022/11/19 07:48:45;;;;;;;9.10;7.70;;;-1.50;99.90;;;;;;5060926;28;20462;-67
2022/11/19 07:51:11;;;;;;;10.30;7.75;;;-1.50;99.90;;;;;;5059236;28;20041;-67
2022/11/19 07:53:37;;;;;;;9.07;7.43;;;-1.40;99.90;;;;;;5037738;28;20058;-67
2022/11/19 07:56:03;;;;;;;8.65;7.72;;;-1.40;99.90;;;;;;5039583;28;20124;-67
2022/11/19 07:58:29;;;;;;;8.98;7.95;;;-1.30;99.90;;;;;;5060653;28;20052;-68
2022/11/19 08:00:54;;;;;;;9.57;8.38;;;-1.30;99.90;;;;;;5058159;28;20090;-68
2022/11/19 08:03:20;;;;;;;8.73;7.82;;;-1.20;99.90;;;;;;5060331;28;20040;-68
2022/11/19 08:05:46;;;;;;;9.15;7.22;;;-0.90;99.90;;;;;;5042247;28;20190;-68
2022/11/19 08:08:11;;;;;;;10.15;7.95;;;-0.90;99.90;;;;;;5057747;28;20032;-68
2022/11/19 08:10:37;;;;;;;9.23;8.18;;;-0.80;99.90;;;;;;5060635;28;20116;-68
2022/11/19 08:13:03;;;;;;;11.32;8.20;;;-0.70;99.90;;;;;;5056560;28;20036;-68
2022/11/19 08:15:30;;;;;;;10.05;7.88;;;-0.70;99.90;;;;;;5059910;28;20122;-68
2022/11/19 08:20:44;;;;;;;10.07;7.80;;;-0.90;99.90;;;;;;5059418;28;20108;-68
2022/11/19 08:23:10;;;;;;;9.38;8.30;;;-0.90;99.90;;;;;;5060962;28;20040;-68
2022/11/19 08:25:37;;;;;;;10.40;8.20;;;-0.90;99.90;;;;;;5056248;28;20052;-68
2022/11/19 08:28:04;;;;;;;9.13;7.20;;;-0.90;99.90;;;;;;5059747;28;20494;-68
2022/11/19 08:30:30;;;;;;;10.77;8.35;;;-0.60;99.90;;;;;;5039861;28;20476;-68
2022/11/19 08:32:56;;;;;;;8.77;7.85;;;0.00;99.90;;;;;;5062230;28;20044;-69
2022/11/19 08:35:22;;;;;;;8.98;7.53;;;0.40;99.90;;;;;;5058855;28;20047;-69
2022/11/19 08:37:48;;;;;;;8.60;7.13;;;0.30;99.90;;;;;;5061553;28;20041;-68
2022/11/19 08:40:15;;;;;;;8.57;6.97;;;0.50;99.90;;;;;;5060063;28;20146;-69
2022/11/19 08:42:58;;;;;;;8.70;7.57;;;1.10;99.90;;;;;;5061190;28;20392;-69
2022/11/19 08:45:28;;;;;;;7.95;7.18;;;2.00;99.90;;;;;;5056414;28;20048;-69
2022/11/19 08:47:54;;;;;;;7.95;7.13;;;2.60;99.90;;;;;;5043947;28;20052;-69
2022/11/19 08:50:20;;;;;;;8.27;7.45;;;2.00;99.90;;;;;;5060494;28;20522;-69
2022/11/19 08:52:52;;;;;;;8.35;7.43;;;1.60;99.90;;;;;;5043524;28;20052;-69
2022/11/19 08:55:18;;;;;;;9.73;7.82;;;1.90;99.90;;;;;;5060955;28;20484;-69
2022/11/19 08:57:43;;;;;;;8.40;7.50;;;2.20;99.90;;;;;;5058856;28;20087;-69
2022/11/19 09:00:10;;;;;;;7.90;6.63;;;2.20;99.90;;;;;;5056874;28;21146;-68
2022/11/19 09:02:35;;;;;;;8.65;7.15;;;2.10;99.90;;;;;;5059985;28;20120;-69
2022/11/19 09:05:01;;;;;;;8.00;7.20;;;1.80;99.90;;;;;;5062648;28;20078;-69
2022/11/19 09:07:27;;;;;;;8.25;7.30;;;1.40;99.90;;;;;;5056835;28;20044;-68
2022/11/19 09:09:52;;;;;;;8.20;7.25;;;1.10;99.90;;;;;;5062729;28;20033;-69
2022/11/19 09:12:18;;;;;;;7.65;6.78;;;0.80;99.90;;;;;;5060227;28;20041;-68
2022/11/19 09:14:44;;;;;;;9.57;7.18;;;0.60;99.90;;;;;;5062512;28;20032;-68
2022/11/19 09:17:09;;;;;;;9.73;7.35;;;0.50;99.90;;;;;;5060302;28;20040;-68
2022/11/19 09:19:35;;;;;;;8.00;7.07;;;0.40;99.90;;;;;;5059462;28;20183;-65
2022/11/19 09:22:01;;;;;;;8.65;7.07;;;0.20;99.90;;;;;;5059853;28;20495;-65
2022/11/19 09:24:27;;;;;;;7.68;6.88;;;0.20;99.90;;;;;;5065029;28;20117;-66
2022/11/19 09:26:52;;;;;;;8.02;5.95;;;0.20;99.90;;;;;;5064366;28;20079;-66
2022/11/19 09:29:18;;;;;;;7.28;6.30;;;0.30;99.90;;;;;;5060372;28;20040;-66
2022/11/19 09:31:44;;;;;;;7.40;6.50;;;0.40;99.90;;;;;;5060059;28;20078;-66
2022/11/19 09:34:09;;;;;;;7.30;6.43;;;0.60;99.90;;;;;;5061890;28;20032;-66
2022/11/19 09:36:35;;;;;;;7.45;6.05;;;0.80;99.90;;;;;;5058543;28;20473;-66
2022/11/19 09:39:02;;;;;;;8.20;6.57;;;0.80;99.90;;;;;;5064154;28;20055;-66
2022/11/19 09:42:01;;;;;;;9.15;7.22;;;0.80;99.90;;;;;;5059825;28;20119;-66
2022/11/19 09:44:27;;;;;;;8.38;6.45;;;1.10;99.90;;;;;;5040780;28;20628;-66
2022/11/19 09:47:03;;;;;;;8.60;6.97;;;1.50;99.90;;;;;;5064250;28;20083;-66
2022/11/19 09:49:41;;;;;;;8.13;6.45;;;1.60;99.90;;;;;;5060009;28;20091;-67
2022/11/19 09:52:15;;;;;;;7.40;6.70;;;1.40;99.90;;;;;;5061866;28;20359;-67
2022/11/19 09:54:48;;;;;;;6.90;6.20;;;1.20;99.90;;;;;;5056092;28;20128;-66
2022/11/19 09:57:23;;;;;;;8.30;6.57;;;1.00;99.90;;;;;;5042517;28;20056;-66
2022/11/19 09:59:54;;;;;;;8.00;7.22;;;0.90;99.90;;;;;;5062931;28;20086;-67
2022/11/19 10:02:21;;;;;;;7.18;6.30;;;0.80;99.90;;;;;;5064661;28;20048;-67
2022/11/19 10:04:49;;;;;;;8.77;6.72;;;0.80;99.90;;;;;;5058655;28;20174;-64
2022/11/19 10:07:51;;;;;;;7.80;6.28;;;0.80;99.90;;;;;;5061571;28;20045;-65
2022/11/19 10:10:19;;;;;;;8.48;6.22;;;0.70;99.90;;;;;;5061320;28;20113;-64
2022/11/19 10:13:10;;;;;;;7.88;6.13;;;0.70;99.90;;;;;;5061164;28;20555;-64
2022/11/19 10:16:05;;;;;;;7.55;6.25;;;0.70;99.90;;;;;;5045513;28;20036;-65
2022/11/19 10:18:50;;;;;;;8.48;6.55;;;0.80;99.90;;;;;;5032146;28;20101;-65
2022/11/19 10:21:34;;;;;;;7.07;5.80;;;0.70;99.90;;;;;;5057755;28;20061;-64
2022/11/19 10:24:28;;;;;;;7.37;6.63;;;0.80;99.90;;;;;;5058993;28;20496;-64
2022/11/19 10:26:59;;;;;;;7.45;6.07;;;0.80;99.90;;;;;;5035014;28;20311;-65
2022/11/19 10:29:28;;;;;;;7.55;5.43;;;0.80;99.90;;;;;;5057899;28;20219;-65
2022/11/19 10:32:29;;;;;;;7.35;5.90;;;0.80;99.90;;;;;;5041693;28;20392;-65
2022/11/19 10:35:05;;;;;;;6.28;5.40;;;0.80;99.90;;;;;;5062826;28;20041;-64
2022/11/19 10:37:37;;;;;;;8.55;6.60;;;0.90;99.90;;;;;;5060130;28;20056;-64
2022/11/19 10:40:16;;;;;;;6.25;5.65;;;0.90;99.90;;;;;;5056545;28;20036;-65
2022/11/19 10:42:47;;;;;;;7.75;6.32;;;0.90;99.90;;;;;;5058395;28;20120;-64
2022/11/19 10:45:17;;;;;;;5.60;5.00;;;1.00;99.90;;;;;;5056175;28;20174;-65
2022/11/19 10:48:22;;;;;;;6.15;5.00;;;1.00;99.90;;;;;;5064779;28;20087;-64
2022/11/19 10:50:48;;;;;;;6.68;4.97;;;1.00;99.90;;;;;;5037074;28;20102;-64
2022/11/19 10:53:31;;;;;;;5.40;4.90;;;1.00;99.90;;;;;;5061882;28;20033;-65
2022/11/19 10:56:02;;;;;;;5.70;5.10;;;1.10;99.90;;;;;;5054345;28;20033;-65
2022/11/19 10:58:46;;;;;;;5.70;4.82;;;1.10;99.90;;;;;;5064273;28;20060;-64
2022/11/19 11:01:20;;;;;;;6.22;5.25;;;1.10;99.90;;;;;;5041984;28;20065;-65
2022/11/19 11:04:06;;;;;;;5.43;4.35;;;1.20;99.90;;;;;;5063931;28;20428;-64
2022/11/19 11:06:51;;;;;;;6.20;4.93;;;1.20;99.90;;;;;;5040218;28;20389;-65
2022/11/19 11:09:35;;;;;;;5.03;4.50;;;1.30;99.90;;;;;;5059613;28;20040;-64
2022/11/19 11:15:28;;;;;;;5.68;4.57;;;1.40;99.90;;;;;;5058042;28;20102;-64
2022/11/19 11:18:03;;;;;;;5.07;4.57;;;1.40;99.90;;;;;;5052409;28;20049;-65
2022/11/19 11:20:29;;;;;;;;;;;1.40;99.90;;;;;;5063386;28;20063;-64
2022/11/19 11:23:10;;;;;;;6.10;4.97;;;1.40;99.90;;;;;;5061525;28;19920;-65
2022/11/19 11:25:38;;;;;;;5.45;4.00;;;1.40;99.90;;;;;;5054036;28;20114;-64
2022/11/19 11:28:10;;;;;;;5.38;4.43;;;1.50;99.90;;;;;;5059195;28;20387;-65
2022/11/19 11:30:36;;;;;;;6.20;4.90;;;1.50;99.90;;;;;;5055618;28;20033;-64
2022/11/19 11:33:32;;;;;;;5.63;4.63;;;1.50;99.90;;;;;;5056536;28;20341;-64
2022/11/19 11:36:11;;;;;;;6.18;4.45;;;1.60;99.90;;;;;;5021593;28;20049;-65
2022/11/19 11:38:45;;;;;;;5.78;4.72;;;1.60;99.90;;;;;;5038383;28;21687;-64
2022/11/19 11:41:12;;;;;;;;;;;1.60;99.90;;;;;;5021992;28;20114;-64
2022/11/19 11:43:40;;;;;;;6.13;4.80;;;1.60;99.90;;;;;;5060886;28;19924;-65
2022/11/19 11:46:09;;;;;;;5.07;3.72;;;1.60;99.90;;;;;;5056825;28;20043;-64
2022/11/19 11:48:44;;;;;;;6.22;4.13;;;1.70;99.90;;;;;;5060504;28;20041;-65
2022/11/19 11:51:28;;;;;;;5.00;4.28;;;1.70;99.90;;;;;;5058481;28;20419;-64
2022/11/19 11:54:18;;;;;;;4.90;4.22;;;1.70;99.90;;;;;;5061988;28;20045;-64
2022/11/19 11:56:45;;;;;;;4.97;4.15;;;1.70;99.90;;;;;;5058779;28;20044;-65
2022/11/19 11:59:21;;;;;;;5.40;4.38;;;1.70;99.90;;;;;;5060269;28;20102;-65
2022/11/19 12:02:01;;;;;;;5.13;4.63;;;1.80;99.90;;;;;;5046374;28;20121;-65
2022/11/19 12:04:27;;;;;;;6.28;4.38;;;1.80;99.90;;;;;;5066530;28;20115;-65
2022/11/19 12:06:56;;;;;;;5.05;4.13;;;1.80;99.90;;;;;;5058427;28;20119;-65
2022/11/19 12:10:02;;;;;;;5.70;4.85;;;1.90;99.90;;;;;;5045224;28;20041;-65
2022/11/19 12:12:47;;;;;;;;;;;1.90;99.90;;;;;;5059886;28;20076;-65
2022/11/19 12:15:48;;;;;;;5.75;4.85;;;1.90;99.90;;;;;;5064755;28;19926;-65
2022/11/19 12:18:36;;;;;;;5.55;4.72;;;1.90;99.90;;;;;;5060458;28;20120;-65
2022/11/19 12:21:10;;;;;;;5.95;5.35;;;1.90;99.90;;;;;;5043517;28;20110;-65
2022/11/19 12:24:07;;;;;;;5.97;4.40;;;2.00;99.90;;;;;;5061436;28;20111;-65
2022/11/19 12:26:39;;;;;;;5.38;4.55;;;2.00;99.90;;;;;;5064116;28;20083;-65
2022/11/19 12:29:32;;;;;;;5.15;4.43;;;2.00;99.90;;;;;;5050789;28;20041;-65
2022/11/19 12:32:29;;;;;;;6.28;5.13;;;2.00;99.90;;;;;;5062031;28;20055;-65
2022/11/19 12:35:08;;;;;;;5.93;4.43;;;2.10;99.90;;;;;;5059267;28;20196;-66
2022/11/19 12:38:01;;;;;;;5.50;4.70;;;2.10;99.90;;;;;;5066859;28;20041;-65
2022/11/19 12:40:44;;;;;;;6.80;5.22;;;2.10;99.90;;;;;;5065396;28;20124;-66
2022/11/19 12:43:47;;;;;;;6.00;4.97;;;2.10;99.90;;;;;;5061910;28;20060;-64
2022/11/19 12:46:20;;;;;;;22.35;14.85;;;2.10;99.90;;;;;;5059860;28;20415;-65
2022/11/19 12:48:55;;;;;;;5.47;4.28;;;2.10;99.90;;;;;;5060964;28;20125;-65
2022/11/19 12:52:07;;;;;;;5.60;4.78;;;2.10;99.90;;;;;;5055538;28;20129;-65
2022/11/19 12:55:15;;;;;;;6.22;4.88;;;2.10;99.90;;;;;;5059698;28;20175;-65
2022/11/19 12:57:53;;;;;;;5.60;4.55;;;2.10;99.90;;;;;;5016885;28;20048;-65
2022/11/19 13:00:21;;;;;;;5.18;4.38;;;2.10;99.90;;;;;;5041760;28;20358;-65
2022/11/19 13:03:06;;;;;;;5.85;4.40;;;2.10;99.90;;;;;;5041204;28;20131;-65
2022/11/19 13:06:07;;;;;;;4.20;3.78;;;2.10;99.90;;;;;;5040283;28;20458;-65
2022/11/19 13:08:42;;;;;;;4.00;3.60;;;2.20;99.90;;;;;;4997778;28;20439;-65
2022/11/19 13:11:35;;;;;;;4.85;4.25;;;2.10;99.90;;;;;;5040298;28;20043;-65
2022/11/19 13:14:08;;;;;;;6.43;4.50;;;2.20;99.90;;;;;;5037232;28;20432;-66
2022/11/19 13:16:35;;;;;;;4.18;3.53;;;2.30;99.90;;;;;;5039904;28;20090;-65
2022/11/19 13:19:24;;;;;;;4.40;3.78;;;2.40;99.90;;;;;;5039841;28;20049;-65
2022/11/19 13:22:05;;;;;;;4.97;4.47;;;2.40;99.90;;;;;;5041290;28;20400;-65
2022/11/19 13:24:39;;;;;;;5.07;4.57;;;2.40;99.90;;;;;;5036468;28;20057;-65
2022/11/19 13:27:11;;;;;;;5.15;3.90;;;2.50;99.90;;;;;;5038698;28;20033;-65
2022/11/19 13:29:40;;;;;;;4.55;4.03;;;2.50;99.90;;;;;;5042845;28;20373;-65
2022/11/19 13:32:25;;;;;;;4.70;3.85;;;2.70;99.90;;;;;;5044155;28;20120;-64
2022/11/19 13:35:22;;;;;;;5.93;4.40;;;2.90;99.90;;;;;;5042899;28;20086;-65
2022/11/19 13:38:00;;;;;;;6.15;4.00;;;3.10;99.90;;;;;;5044223;28;20055;-64
2022/11/19 13:40:41;;;;;;;5.20;4.15;;;3.10;99.90;;;;;;5042429;28;20042;-65
2022/11/19 13:46:31;;;;;;;4.57;3.80;;;2.80;99.90;;;;;;5040739;28;20049;-66